createdAt,value
2023-03-15T00:00:19.581Z,6.00
2023-03-15T00:02:46.228Z,6.10
2023-03-15T00:05:12.981Z,6.10
2023-03-15T00:07:39.626Z,6.10
2023-03-15T00:10:06.842Z,6.10
2023-03-15T00:12:34.340Z,6.10
2023-03-15T00:15:00.934Z,6.20
2023-03-15T00:17:27.991Z,6.20
2023-03-15T00:19:54.639Z,6.10
2023-03-15T00:22:23.056Z,6.20
2023-03-15T00:24:49.686Z,6.20
2023-03-15T00:27:16.251Z,6.10
2023-03-15T00:29:42.818Z,6.10
2023-03-15T00:32:09.654Z,6.10
2023-03-15T00:34:36.199Z,6.10
2023-03-15T00:37:02.780Z,6.10
2023-03-15T00:39:29.434Z,6.10
2023-03-15T00:41:56.805Z,6.00
2023-03-15T00:44:24.423Z,6.00
2023-03-15T00:46:51.270Z,6.00
2023-03-15T00:49:18.194Z,6.00
2023-03-15T00:51:44.751Z,6.00
2023-03-15T00:54:13.679Z,6.10
2023-03-15T00:56:41.240Z,6.10
2023-03-15T00:59:08.548Z,6.10
2023-03-15T01:01:35.254Z,6.10
2023-03-15T01:04:01.973Z,6.10
2023-03-15T01:06:29.543Z,6.10
2023-03-15T01:08:56.989Z,6.10
2023-03-15T01:11:26.703Z,6.10
2023-03-15T01:13:54.775Z,6.00
2023-03-15T01:16:22.149Z,6.00
2023-03-15T01:18:48.799Z,6.00
2023-03-15T01:21:16.459Z,6.00
2023-03-15T01:23:43.047Z,6.00
2023-03-15T01:26:13.465Z,6.00
2023-03-15T01:28:40.308Z,6.00
2023-03-15T01:31:07.024Z,6.00
2023-03-15T01:33:33.648Z,6.00
2023-03-15T01:36:04.751Z,6.00
2023-03-15T01:38:31.489Z,5.90
2023-03-15T01:40:58.189Z,5.80
2023-03-15T01:43:27.277Z,5.80
2023-03-15T01:46:18.658Z,5.70
2023-03-15T01:48:53.462Z,5.70
2023-03-15T01:51:25.457Z,5.70
2023-03-15T01:54:00.502Z,5.70
2023-03-15T01:56:27.907Z,5.70
2023-03-15T01:58:57.970Z,5.70
2023-03-15T02:01:24.958Z,5.80
2023-03-15T02:04:01.378Z,5.80
2023-03-15T02:06:28.764Z,5.90
2023-03-15T02:09:00.386Z,5.90
2023-03-15T02:11:27.963Z,5.90
2023-03-15T02:13:56.507Z,5.90
2023-03-15T02:16:24.597Z,5.90
2023-03-15T02:18:51.170Z,5.90
2023-03-15T02:21:26.531Z,5.90
2023-03-15T02:24:06.494Z,5.90
2023-03-15T02:26:43.836Z,5.80
2023-03-15T02:29:11.393Z,5.80
2023-03-15T02:31:38.903Z,5.70
2023-03-15T02:34:07.284Z,5.70
2023-03-15T02:36:35.559Z,5.60
2023-03-15T02:39:13.245Z,5.60
2023-03-15T02:41:43.538Z,5.50
2023-03-15T02:44:20.346Z,5.50
2023-03-15T02:46:49.923Z,5.50
2023-03-15T02:49:17.383Z,5.50
2023-03-15T02:51:43.987Z,5.40
2023-03-15T02:54:10.520Z,5.40
2023-03-15T02:56:37.101Z,5.30
2023-03-15T02:59:04.021Z,5.30
2023-03-15T03:01:31.619Z,5.30
2023-03-15T03:03:58.302Z,5.20
2023-03-15T03:06:24.912Z,5.20
2023-03-15T03:08:51.489Z,5.10
2023-03-15T03:11:18.246Z,5.10
2023-03-15T03:13:44.874Z,5.10
2023-03-15T03:16:11.810Z,5.10
2023-03-15T03:18:38.776Z,5.10
2023-03-15T03:21:07.234Z,5.10
2023-03-15T03:23:35.403Z,5.10
2023-03-15T03:26:02.981Z,5.10
2023-03-15T03:28:31.760Z,5.10
2023-03-15T03:30:59.106Z,5.10
2023-03-15T03:33:25.647Z,5.00
2023-03-15T03:35:53.974Z,5.00
2023-03-15T03:38:20.518Z,5.00
2023-03-15T03:40:47.113Z,4.90
2023-03-15T03:43:13.694Z,4.90
2023-03-15T03:45:40.218Z,4.90
2023-03-15T03:48:06.830Z,4.80
2023-03-15T03:50:33.378Z,4.80
2023-03-15T03:53:00.118Z,4.70
2023-03-15T03:55:26.709Z,4.70
2023-03-15T03:57:53.294Z,4.70
2023-03-15T04:00:20.158Z,4.70
2023-03-15T04:02:46.914Z,4.70
2023-03-15T04:05:13.807Z,4.70
2023-03-15T04:07:41.274Z,4.80
2023-03-15T04:10:08.877Z,4.80
2023-03-15T04:12:35.511Z,4.80
2023-03-15T04:15:02.218Z,4.70
2023-03-15T04:17:28.722Z,4.80
2023-03-15T04:19:55.315Z,4.80
2023-03-15T04:22:21.856Z,4.80
2023-03-15T04:24:51.178Z,4.80
2023-03-15T04:27:17.840Z,4.70
2023-03-15T04:29:44.776Z,4.70
2023-03-15T04:32:11.559Z,4.60
2023-03-15T04:34:38.740Z,4.60
2023-03-15T04:37:06.329Z,4.50
2023-03-15T04:39:32.891Z,4.40
2023-03-15T04:41:59.567Z,4.50
2023-03-15T04:44:27.339Z,4.50
2023-03-15T04:46:55.076Z,4.50
2023-03-15T04:49:21.769Z,4.50
2023-03-15T04:51:48.286Z,4.40
2023-03-15T04:54:14.853Z,4.50
2023-03-15T04:56:42.102Z,4.50
2023-03-15T04:59:10.562Z,4.40
2023-03-15T05:01:37.549Z,4.50
2023-03-15T05:04:04.300Z,4.50
2023-03-15T05:06:30.899Z,4.60
2023-03-15T05:08:57.495Z,4.60
2023-03-15T05:11:24.064Z,4.60
2023-03-15T05:13:50.614Z,4.60
2023-03-15T05:16:17.406Z,4.60
2023-03-15T05:18:45.197Z,4.50
2023-03-15T05:21:13.007Z,4.50
2023-03-15T05:23:39.844Z,4.50
2023-03-15T05:26:06.451Z,4.40
2023-03-15T05:28:33.058Z,4.30
2023-03-15T05:31:00.718Z,4.30
2023-03-15T05:33:27.573Z,4.30
2023-03-15T05:35:56.307Z,4.30
2023-03-15T05:38:26.418Z,4.30
2023-03-15T05:40:53.599Z,4.30
2023-03-15T05:43:20.864Z,4.30
2023-03-15T05:45:48.569Z,4.40
2023-03-15T05:48:16.574Z,4.40
2023-03-15T05:50:43.195Z,4.30
2023-03-15T05:53:10.467Z,4.30
2023-03-15T05:55:37.122Z,4.30
2023-03-15T05:58:04.053Z,4.30
2023-03-15T06:00:30.652Z,4.30
2023-03-15T06:02:57.286Z,4.30
2023-03-15T06:05:23.904Z,4.30
2023-03-15T06:07:50.460Z,4.30
2023-03-15T06:10:17.150Z,4.40
2023-03-15T06:12:44.628Z,4.40
2023-03-15T06:15:11.634Z,4.40
2023-03-15T06:17:38.224Z,4.40
2023-03-15T06:20:05.146Z,4.50
2023-03-15T06:22:31.822Z,4.70
2023-03-15T06:24:58.500Z,4.80
2023-03-15T06:27:25.048Z,5.00
2023-03-15T06:29:51.623Z,5.00
2023-03-15T06:32:18.190Z,5.20
2023-03-15T06:34:44.825Z,5.30
2023-03-15T06:37:16.305Z,5.40
2023-03-15T06:39:46.877Z,5.60
2023-03-15T06:42:13.672Z,5.80
2023-03-15T06:44:41.305Z,5.80
2023-03-15T06:47:08.779Z,5.80
2023-03-15T06:49:35.584Z,5.90
2023-03-15T06:52:02.832Z,6.00
2023-03-15T06:54:29.511Z,6.10
2023-03-15T06:56:56.220Z,6.10
2023-03-15T06:59:23.355Z,6.20
2023-03-15T07:01:50.037Z,6.30
2023-03-15T07:04:16.716Z,6.40
2023-03-15T07:06:43.328Z,6.50
2023-03-15T07:09:10.522Z,6.60
2023-03-15T07:11:37.361Z,6.50
2023-03-15T07:14:03.962Z,6.50
2023-03-15T07:16:30.692Z,6.60
2023-03-15T07:18:59.246Z,7.00
2023-03-15T07:21:26.751Z,7.50
2023-03-15T07:23:53.396Z,7.90
2023-03-15T07:26:20.256Z,8.20
2023-03-15T07:28:47.019Z,8.50
2023-03-15T07:31:14.078Z,8.90
2023-03-15T07:33:40.895Z,9.20
2023-03-15T07:36:08.260Z,9.50
2023-03-15T07:38:35.766Z,9.70
2023-03-15T07:41:04.241Z,9.90
2023-03-15T07:43:31.096Z,10.20
2023-03-15T07:45:57.696Z,10.20
2023-03-15T07:48:24.324Z,10.30
2023-03-15T07:50:50.999Z,10.40
2023-03-15T07:53:18.224Z,10.80
2023-03-15T07:55:47.731Z,11.00
2023-03-15T07:58:14.624Z,11.30
2023-03-15T08:00:41.494Z,11.60
2023-03-15T08:03:08.561Z,12.00
2023-03-15T08:05:35.820Z,12.50
2023-03-15T08:08:02.717Z,12.90
2023-03-15T08:10:29.377Z,13.30
2023-03-15T08:12:55.927Z,13.40
2023-03-15T08:15:22.746Z,13.60
2023-03-15T08:17:49.323Z,13.90
2023-03-15T08:20:19.859Z,14.10
2023-03-15T08:22:48.619Z,14.50
2023-03-15T08:25:18.699Z,14.60
2023-03-15T08:27:45.359Z,14.50
2023-03-15T08:30:13.989Z,14.30
2023-03-15T08:32:42.339Z,14.60
2023-03-15T08:35:09.909Z,15.60
2023-03-15T08:37:36.451Z,16.30
2023-03-15T08:40:09.175Z,17.70
2023-03-15T08:42:39.134Z,19.10
2023-03-15T08:45:07.426Z,20.10
2023-03-15T08:47:37.807Z,20.70
2023-03-15T08:50:11.468Z,21.00
2023-03-15T08:52:38.688Z,21.60
2023-03-15T08:55:05.938Z,21.90
2023-03-15T08:57:32.960Z,21.90
2023-03-15T09:00:01.920Z,21.80
2023-03-15T09:02:29.209Z,22.00
2023-03-15T09:04:55.814Z,22.30
2023-03-15T09:07:22.459Z,22.10
2023-03-15T09:09:49.234Z,21.10
2023-03-15T09:12:16.852Z,19.20
2023-03-15T09:14:43.971Z,19.30
2023-03-15T09:17:11.133Z,19.90
2023-03-15T09:19:38.240Z,20.00
2023-03-15T09:22:17.020Z,20.30
2023-03-15T09:24:51.785Z,19.40
2023-03-15T09:27:18.908Z,18.10
2023-03-15T09:29:45.442Z,16.90
2023-03-15T09:32:12.087Z,17.10
2023-03-15T09:34:41.956Z,17.90
2023-03-15T09:37:09.261Z,18.00
2023-03-15T09:39:35.809Z,17.90
2023-03-15T09:42:06.534Z,17.00
2023-03-15T09:44:36.534Z,15.70
2023-03-15T09:47:15.180Z,15.80
2023-03-15T09:49:47.775Z,16.00
2023-03-15T09:52:20.593Z,16.70
2023-03-15T09:54:57.643Z,16.90
2023-03-15T09:57:41.154Z,16.20
2023-03-15T10:00:13.613Z,16.60
2023-03-15T10:02:48.539Z,16.80
2023-03-15T10:05:28.112Z,16.90
2023-03-15T10:07:54.693Z,17.20
2023-03-15T10:10:28.326Z,17.70
2023-03-15T10:13:23.124Z,18.10
2023-03-15T10:16:05.048Z,18.30
2023-03-15T10:18:54.898Z,18.40
2023-03-15T10:21:38.048Z,18.50
2023-03-15T10:24:09.187Z,18.60
2023-03-15T10:26:38.538Z,18.30
2023-03-15T10:29:14.716Z,18.30
2023-03-15T10:31:45.108Z,17.90
2023-03-15T10:34:12.599Z,17.80
2023-03-15T10:36:49.761Z,17.90
2023-03-15T10:39:16.771Z,17.90
2023-03-15T10:41:46.022Z,17.60
2023-03-15T10:44:36.759Z,17.20
2023-03-15T10:47:24.327Z,16.80
2023-03-15T10:49:57.272Z,16.50
2023-03-15T10:52:36.796Z,16.00
2023-03-15T10:55:28.584Z,15.50
2023-03-15T10:57:57.375Z,15.10
2023-03-15T11:00:31.641Z,14.80
2023-03-15T11:03:17.080Z,14.70
2023-03-15T11:05:49.891Z,14.50
2023-03-15T11:08:21.443Z,14.20
2023-03-15T11:10:56.908Z,14.00
2023-03-15T11:13:35.573Z,13.80
2023-03-15T11:16:05.073Z,13.70
2023-03-15T11:18:54.842Z,13.60
2023-03-15T11:21:25.471Z,13.30
2023-03-15T11:23:53.796Z,12.90
2023-03-15T11:26:33.255Z,12.70
2023-03-15T11:29:07.984Z,12.60
2023-03-15T11:31:36.068Z,12.60
2023-03-15T11:34:27.215Z,12.50
2023-03-15T11:37:07.651Z,12.40
2023-03-15T11:40:10.512Z,12.20
2023-03-15T11:42:46.638Z,12.20
2023-03-15T11:45:30.001Z,12.20
2023-03-15T11:48:00.603Z,12.10
2023-03-15T11:50:27.239Z,12.00
2023-03-15T11:52:53.909Z,11.90
2023-03-15T11:55:26.455Z,12.00
2023-03-15T11:57:54.392Z,11.90
2023-03-15T12:00:34.286Z,11.80
2023-03-15T12:03:34.378Z,11.70
2023-03-15T12:06:18.450Z,11.60
2023-03-15T12:08:45.022Z,11.50
2023-03-15T12:11:22.604Z,11.40
2023-03-15T12:13:58.222Z,11.50
2023-03-15T12:16:30.751Z,11.70
2023-03-15T12:18:59.802Z,11.80
2023-03-15T12:21:37.568Z,11.90
2023-03-15T12:24:07.170Z,11.80
2023-03-15T12:26:49.483Z,11.60
2023-03-15T12:29:23.988Z,11.60
2023-03-15T12:31:58.543Z,11.60
2023-03-15T12:34:52.633Z,11.80
2023-03-15T12:37:27.271Z,11.80
2023-03-15T12:40:15.992Z,11.70
2023-03-15T12:42:42.547Z,11.60
2023-03-15T12:45:17.980Z,11.60
2023-03-15T12:48:12.568Z,11.60
2023-03-15T12:50:45.658Z,11.40
2023-03-15T12:53:38.115Z,11.30
2023-03-15T12:56:32.486Z,11.30
2023-03-15T12:59:05.378Z,11.30
2023-03-15T13:01:33.569Z,11.40
2023-03-15T13:04:01.740Z,11.50
2023-03-15T13:06:45.969Z,11.40
2023-03-15T13:09:38.474Z,11.40
2023-03-15T13:12:18.573Z,11.30
2023-03-15T13:15:22.488Z,11.30
2023-03-15T13:17:57.846Z,11.30
2023-03-15T13:20:42.924Z,11.30
2023-03-15T13:23:21.594Z,11.10
2023-03-15T13:26:19.269Z,11.10
2023-03-15T13:29:15.079Z,11.10
2023-03-15T13:31:42.620Z,11.20
2023-03-15T13:34:24.128Z,11.20
2023-03-15T13:36:56.418Z,11.20
2023-03-15T13:39:28.283Z,11.20
2023-03-15T13:41:59.864Z,11.20
2023-03-15T13:44:28.248Z,11.20
2023-03-15T13:46:55.211Z,11.10
2023-03-15T13:49:22.011Z,11.00
2023-03-15T13:51:51.684Z,11.00
2023-03-15T13:54:27.366Z,11.00
2023-03-15T13:57:03.282Z,11.00
2023-03-15T13:59:42.924Z,11.00
2023-03-15T14:02:25.111Z,11.00
2023-03-15T14:04:56.416Z,11.00
2023-03-15T14:07:33.795Z,10.90
2023-03-15T14:10:39.292Z,10.80
2023-03-15T14:13:25.973Z,10.70
2023-03-15T14:16:07.557Z,10.70
2023-03-15T14:18:37.100Z,10.80
2023-03-15T14:21:17.806Z,10.90
2023-03-15T14:23:47.312Z,10.90
2023-03-15T14:26:19.580Z,10.90
2023-03-15T14:29:01.201Z,10.80
2023-03-15T14:31:34.724Z,10.80
2023-03-15T14:34:09.162Z,10.70
2023-03-15T14:36:44.697Z,10.70
2023-03-15T14:39:18.048Z,10.60
2023-03-15T14:41:45.842Z,10.70
2023-03-15T14:44:12.475Z,10.70
2023-03-15T14:46:39.005Z,10.70
2023-03-15T14:49:05.834Z,10.80
2023-03-15T14:51:33.140Z,10.80
2023-03-15T14:54:00.912Z,10.80
2023-03-15T14:56:27.540Z,10.70
2023-03-15T14:58:55.366Z,10.60
2023-03-15T15:01:27.120Z,10.50
2023-03-15T15:04:02.305Z,10.40
2023-03-15T15:06:31.876Z,10.40
2023-03-15T15:08:59.833Z,10.50
2023-03-15T15:11:27.112Z,10.60
2023-03-15T15:13:53.845Z,10.70
2023-03-15T15:16:20.460Z,10.70
2023-03-15T15:18:47.084Z,10.70
2023-03-15T15:21:33.702Z,10.70
2023-03-15T15:24:02.946Z,10.70
2023-03-15T15:26:31.860Z,10.70
2023-03-15T15:28:59.393Z,10.70
2023-03-15T15:31:28.149Z,10.70
2023-03-15T15:33:56.413Z,10.60
2023-03-15T15:36:35.555Z,10.70
2023-03-15T15:39:06.362Z,10.60
2023-03-15T15:41:33.651Z,10.60
2023-03-15T15:44:00.544Z,10.60
2023-03-15T15:46:27.323Z,10.60
2023-03-15T15:48:54.399Z,10.60
2023-03-15T15:51:30.060Z,10.50
2023-03-15T15:53:59.060Z,10.50
2023-03-15T15:56:39.937Z,10.50
2023-03-15T15:59:13.285Z,10.60
2023-03-15T16:01:56.739Z,10.50
2023-03-15T16:04:25.939Z,10.50
2023-03-15T16:06:56.335Z,10.60
2023-03-15T16:09:24.675Z,10.50
2023-03-15T16:11:51.263Z,10.50
2023-03-15T16:14:17.939Z,10.50
2023-03-15T16:16:45.755Z,10.50
2023-03-15T16:19:12.330Z,10.50
2023-03-15T16:21:44.885Z,10.30
2023-03-15T16:24:25.683Z,10.20
2023-03-15T16:26:58.982Z,10.10
2023-03-15T16:29:38.534Z,10.10
2023-03-15T16:32:17.657Z,10.10
2023-03-15T16:34:50.048Z,10.00
2023-03-15T16:37:26.162Z,10.00
2023-03-15T16:39:57.405Z,9.90
2023-03-15T16:42:25.506Z,9.80
2023-03-15T16:44:52.802Z,9.70
2023-03-15T16:47:19.900Z,9.60
2023-03-15T16:49:46.530Z,9.50
2023-03-15T16:52:15.927Z,9.40
2023-03-15T16:54:43.686Z,9.40
2023-03-15T16:57:15.812Z,9.40
2023-03-15T16:59:42.345Z,9.30
2023-03-15T17:02:18.612Z,9.30
2023-03-15T17:04:45.820Z,9.20
2023-03-15T17:07:14.325Z,9.20
2023-03-15T17:09:43.980Z,9.10
2023-03-15T17:12:19.084Z,9.00
2023-03-15T17:14:45.977Z,9.00
2023-03-15T17:17:12.588Z,8.90
2023-03-15T17:19:39.396Z,8.90
2023-03-15T17:22:06.663Z,8.90
2023-03-15T17:24:34.409Z,8.90
2023-03-15T17:27:01.097Z,8.80
2023-03-15T17:29:27.705Z,8.80
2023-03-15T17:31:54.358Z,8.80
2023-03-15T17:34:22.411Z,8.70
2023-03-15T17:36:49.036Z,8.70
2023-03-15T17:39:16.946Z,8.60
2023-03-15T17:41:48.487Z,8.70
2023-03-15T17:44:15.090Z,8.60
2023-03-15T17:46:42.781Z,8.60
2023-03-15T17:49:11.867Z,8.50
2023-03-15T17:51:38.653Z,8.50
2023-03-15T17:54:17.624Z,8.50
2023-03-15T17:56:44.354Z,8.50
2023-03-15T17:59:11.971Z,8.50
2023-03-15T18:01:42.521Z,8.40
2023-03-15T18:04:11.892Z,8.40
2023-03-15T18:06:38.563Z,8.50
2023-03-15T18:09:05.581Z,8.40
2023-03-15T18:11:35.691Z,8.40
2023-03-15T18:14:03.475Z,8.30
2023-03-15T18:16:30.520Z,8.30
2023-03-15T18:18:57.276Z,8.20
2023-03-15T18:21:26.303Z,8.20
2023-03-15T18:23:53.476Z,8.20
2023-03-15T18:26:21.503Z,8.20
2023-03-15T18:28:48.869Z,8.20
2023-03-15T18:31:24.098Z,8.20
2023-03-15T18:33:52.060Z,8.20
2023-03-15T18:36:18.744Z,8.10
2023-03-15T18:38:45.848Z,8.10
2023-03-15T18:41:21.226Z,8.10
2023-03-15T18:43:50.008Z,8.10
2023-03-15T18:46:24.830Z,8.10
2023-03-15T18:48:54.334Z,8.10
2023-03-15T18:51:23.080Z,8.10
2023-03-15T18:53:49.764Z,8.10
2023-03-15T18:56:28.392Z,8.10
2023-03-15T18:58:55.028Z,8.10
2023-03-15T19:01:23.000Z,8.10
2023-03-15T19:03:50.809Z,8.00
2023-03-15T19:06:18.493Z,8.00
2023-03-15T19:08:45.085Z,8.00
2023-03-15T19:11:11.958Z,8.00
2023-03-15T19:13:38.738Z,7.90
2023-03-15T19:16:05.484Z,8.00
2023-03-15T19:18:34.985Z,7.90
2023-03-15T19:21:02.428Z,7.90
2023-03-15T19:23:29.016Z,7.80
2023-03-15T19:25:55.581Z,7.80
2023-03-15T19:28:22.391Z,7.80
2023-03-15T19:30:49.254Z,7.70
2023-03-15T19:33:16.199Z,7.70
2023-03-15T19:35:42.778Z,7.70
2023-03-15T19:38:09.324Z,7.70
2023-03-15T19:40:36.962Z,7.70
2023-03-15T19:43:03.746Z,7.60
2023-03-15T19:45:30.289Z,7.50
2023-03-15T19:47:56.894Z,7.50
2023-03-15T19:50:23.503Z,7.40
2023-03-15T19:52:50.037Z,7.30
2023-03-15T19:55:19.352Z,7.30
2023-03-15T19:57:46.322Z,7.20
2023-03-15T20:00:15.902Z,7.20
2023-03-15T20:02:43.701Z,7.20
2023-03-15T20:05:12.365Z,7.30
2023-03-15T20:07:39.422Z,7.40
2023-03-15T20:10:08.374Z,7.30
2023-03-15T20:12:36.047Z,7.40
2023-03-15T20:15:03.086Z,7.40
2023-03-15T20:17:29.670Z,7.30
2023-03-15T20:19:56.296Z,7.20
2023-03-15T20:22:22.982Z,7.10
2023-03-15T20:24:49.979Z,7.00
2023-03-15T20:27:16.808Z,7.00
2023-03-15T20:29:43.421Z,7.00
2023-03-15T20:32:10.078Z,7.10
2023-03-15T20:34:37.266Z,7.10
2023-03-15T20:37:03.796Z,7.10
2023-03-15T20:39:30.327Z,7.10
2023-03-15T20:41:56.863Z,7.10
2023-03-15T20:44:23.482Z,7.20
2023-03-15T20:46:54.789Z,7.10
2023-03-15T20:49:21.395Z,7.00
2023-03-15T20:51:48.001Z,7.00
2023-03-15T20:54:14.546Z,7.10
2023-03-15T20:56:41.104Z,7.10
2023-03-15T20:59:07.642Z,7.10
2023-03-15T21:01:34.478Z,7.20
2023-03-15T21:04:01.078Z,7.10
2023-03-15T21:06:27.622Z,7.10
2023-03-15T21:08:54.156Z,7.10
2023-03-15T21:11:20.751Z,7.00
2023-03-15T21:13:47.387Z,7.00
2023-03-15T21:16:14.261Z,6.90
2023-03-15T21:18:47.561Z,6.80
2023-03-15T21:21:14.272Z,6.80
2023-03-15T21:23:41.856Z,6.80
2023-03-15T21:26:10.557Z,6.80
2023-03-15T21:28:37.673Z,6.80
2023-03-15T21:31:05.441Z,6.90
2023-03-15T21:33:32.275Z,6.90
2023-03-15T21:36:00.321Z,7.00
2023-03-15T21:38:31.925Z,7.00
2023-03-15T21:40:59.876Z,7.00
2023-03-15T21:43:27.532Z,7.00
2023-03-15T21:45:54.395Z,7.00
2023-03-15T21:48:20.974Z,7.00
2023-03-15T21:50:53.282Z,6.80
2023-03-15T21:53:23.663Z,6.70
2023-03-15T21:55:50.216Z,6.60
2023-03-15T21:58:16.850Z,6.50
2023-03-15T22:00:43.555Z,6.50
2023-03-15T22:03:10.134Z,6.40
2023-03-15T22:05:36.690Z,6.30
2023-03-15T22:08:03.455Z,6.20
2023-03-15T22:10:30.293Z,6.20
2023-03-15T22:12:56.832Z,6.20
2023-03-15T22:15:23.426Z,6.10
2023-03-15T22:17:50.844Z,6.00
2023-03-15T22:20:17.603Z,5.90
2023-03-15T22:22:48.940Z,5.80
2023-03-15T22:25:16.050Z,5.70
2023-03-15T22:27:42.863Z,5.70
2023-03-15T22:30:13.588Z,5.70
2023-03-15T22:32:44.708Z,5.60
2023-03-15T22:35:15.926Z,5.60
2023-03-15T22:37:42.750Z,5.50
2023-03-15T22:40:13.969Z,5.40
2023-03-15T22:42:44.175Z,5.40
2023-03-15T22:45:10.806Z,5.50
2023-03-15T22:47:37.482Z,5.40
2023-03-15T22:50:04.255Z,5.50
2023-03-15T22:52:30.847Z,5.50
2023-03-15T22:54:57.415Z,5.50
2023-03-15T22:57:24.027Z,5.50
2023-03-15T22:59:50.577Z,5.50
2023-03-15T23:02:17.152Z,5.60
2023-03-15T23:04:45.155Z,5.60
2023-03-15T23:07:12.160Z,5.60
2023-03-15T23:09:38.743Z,5.70
2023-03-15T23:12:05.735Z,5.70
2023-03-15T23:14:32.348Z,5.60
2023-03-15T23:16:59.218Z,5.60
2023-03-15T23:19:25.761Z,5.40
2023-03-15T23:21:52.293Z,5.40
2023-03-15T23:24:19.646Z,5.30
2023-03-15T23:26:46.273Z,5.30
2023-03-15T23:29:13.267Z,5.30
2023-03-15T23:31:41.440Z,5.40
2023-03-15T23:34:08.566Z,5.30
2023-03-15T23:36:36.312Z,5.30
2023-03-15T23:39:03.176Z,5.30
2023-03-15T23:41:29.810Z,5.40
2023-03-15T23:43:56.535Z,5.40
2023-03-15T23:46:25.925Z,5.40
2023-03-15T23:48:53.326Z,5.50
2023-03-15T23:51:21.976Z,5.40
2023-03-15T23:53:48.500Z,5.30
2023-03-15T23:56:15.116Z,5.30
2023-03-15T23:58:41.702Z,5.30
